createdAt,value
2023-03-24T00:00:04.194Z,165.000000
2023-03-24T00:01:00.816Z,282.500000
2023-03-24T00:02:01.713Z,282.500000
2023-03-24T00:03:00.901Z,282.500000
2023-03-24T00:04:00.969Z,282.500000
2023-03-24T00:05:05.406Z,282.500000
2023-03-24T00:06:01.721Z,230.000000
2023-03-24T00:07:00.825Z,230.000000
2023-03-24T00:08:02.483Z,177.500000
2023-03-24T00:09:00.842Z,177.500000
2023-03-24T00:10:04.228Z,177.500000
2023-03-24T00:11:00.863Z,195.000000
2023-03-24T00:12:00.958Z,195.000000
2023-03-24T00:13:00.879Z,195.000000
2023-03-24T00:14:01.742Z,232.500000
2023-03-24T00:15:04.189Z,232.500000
2023-03-24T00:16:00.987Z,175.000000
2023-03-24T00:17:00.906Z,175.000000
2023-03-24T00:18:00.988Z,175.000000
2023-03-24T00:19:00.914Z,190.000000
2023-03-24T00:20:04.223Z,190.000000
2023-03-24T00:21:00.930Z,172.500000
2023-03-24T00:22:01.002Z,172.500000
2023-03-24T00:23:00.933Z,172.500000
2023-03-24T00:24:01.027Z,260.000000
2023-03-24T00:25:04.176Z,260.000000
2023-03-24T00:26:01.018Z,170.000000
2023-03-24T00:27:00.968Z,170.000000
2023-03-24T00:28:01.777Z,170.000000
2023-03-24T00:29:00.949Z,180.000000
2023-03-24T00:30:05.681Z,180.000000
2023-03-24T00:31:00.979Z,180.000000
2023-03-24T00:32:01.044Z,180.000000
2023-03-24T00:33:01.077Z,180.000000
2023-03-24T00:34:01.081Z,170.000000
2023-03-24T00:35:04.270Z,170.000000
2023-03-24T00:36:01.739Z,170.000000
2023-03-24T00:37:00.996Z,165.000000
2023-03-24T00:38:01.075Z,165.000000
2023-03-24T00:39:01.035Z,170.000000
2023-03-24T00:40:04.792Z,170.000000
2023-03-24T00:41:01.025Z,160.000000
2023-03-24T00:42:01.134Z,160.000000
2023-03-24T00:43:01.033Z,160.000000
2023-03-24T00:44:01.725Z,160.000000
2023-03-24T00:45:04.190Z,160.000000
2023-03-24T00:46:49.474Z,155.000000
2023-03-24T00:47:01.120Z,155.000000
2023-03-24T00:48:01.275Z,155.000000
2023-03-24T00:49:01.104Z,140.000000
2023-03-24T00:50:05.418Z,140.000000
2023-03-24T00:51:01.124Z,160.000000
2023-03-24T00:52:01.215Z,160.000000
2023-03-24T00:53:01.096Z,160.000000
2023-03-24T00:54:01.197Z,160.000000
2023-03-24T00:55:04.217Z,160.000000
2023-03-24T00:56:01.191Z,165.000000
2023-03-24T00:57:01.186Z,165.000000
2023-03-24T00:58:01.734Z,165.000000
2023-03-24T00:59:01.136Z,162.500000
2023-03-24T01:00:05.033Z,162.500000
2023-03-24T01:01:01.190Z,162.500000
2023-03-24T01:02:01.726Z,152.500000
2023-03-24T01:03:01.290Z,152.500000
2023-03-24T01:04:01.294Z,165.000000
2023-03-24T01:05:04.796Z,165.000000
2023-03-24T01:06:03.075Z,152.500000
2023-03-24T01:07:01.196Z,152.500000
2023-03-24T01:08:01.267Z,152.500000
2023-03-24T01:09:01.215Z,157.500000
2023-03-24T01:10:04.958Z,157.500000
2023-03-24T01:11:01.326Z,157.500000
2023-03-24T01:12:00.327Z,157.500000
2023-03-24T01:13:00.245Z,157.500000
2023-03-24T01:14:01.713Z,145.000000
2023-03-24T01:15:03.281Z,145.000000
2023-03-24T01:16:00.381Z,145.000000
2023-03-24T01:17:00.264Z,145.000000
2023-03-24T01:18:00.380Z,145.000000
2023-03-24T01:19:00.250Z,165.000000
2023-03-24T01:20:03.892Z,165.000000
2023-03-24T01:21:00.292Z,160.000000
2023-03-24T01:22:00.399Z,160.000000
2023-03-24T01:23:00.292Z,160.000000
2023-03-24T01:24:00.405Z,160.000000
2023-03-24T01:25:03.444Z,160.000000
2023-03-24T01:26:00.371Z,150.000000
2023-03-24T01:27:00.324Z,150.000000
2023-03-24T01:28:01.789Z,150.000000
2023-03-24T01:29:00.329Z,175.000000
2023-03-24T01:30:03.927Z,175.000000
2023-03-24T01:31:00.349Z,175.000000
2023-03-24T01:32:00.501Z,177.500000
2023-03-24T01:33:00.421Z,177.500000
2023-03-24T01:34:00.518Z,157.500000
2023-03-24T01:35:03.285Z,157.500000
2023-03-24T01:36:01.800Z,157.500000
2023-03-24T01:37:00.385Z,147.500000
2023-03-24T01:38:00.456Z,147.500000
2023-03-24T01:39:00.403Z,170.000000
2023-03-24T01:40:04.143Z,170.000000
2023-03-24T01:41:00.403Z,170.000000
2023-03-24T01:42:00.536Z,170.000000
2023-03-24T01:43:00.409Z,170.000000
2023-03-24T01:44:00.488Z,155.000000
2023-03-24T01:45:05.753Z,155.000000
2023-03-24T01:46:00.654Z,155.000000
2023-03-24T01:47:00.420Z,155.000000
2023-03-24T01:48:01.803Z,155.000000
2023-03-24T01:49:00.441Z,167.500000
2023-03-24T01:50:03.782Z,167.500000
2023-03-24T01:51:00.488Z,167.500000
2023-03-24T01:52:01.800Z,167.500000
2023-03-24T01:53:00.475Z,167.500000
2023-03-24T01:54:00.597Z,167.500000
2023-03-24T01:55:03.636Z,150.000000
2023-03-24T01:56:01.757Z,150.000000
2023-03-24T01:57:00.551Z,167.500000
2023-03-24T01:58:00.585Z,167.500000
2023-03-24T01:59:00.537Z,167.500000
2023-03-24T02:00:04.196Z,157.500000
2023-03-24T02:01:00.607Z,157.500000
2023-03-24T02:02:00.702Z,162.500000
2023-03-24T02:03:00.618Z,162.500000
2023-03-24T02:04:01.782Z,162.500000
2023-03-24T02:05:03.668Z,165.000000
2023-03-24T02:06:00.709Z,165.000000
2023-03-24T02:07:00.582Z,157.500000
2023-03-24T02:08:00.694Z,157.500000
2023-03-24T02:09:00.601Z,157.500000
2023-03-24T02:10:04.179Z,157.500000
2023-03-24T02:11:00.622Z,157.500000
2023-03-24T02:12:00.725Z,162.500000
2023-03-24T02:13:00.637Z,162.500000
2023-03-24T02:14:00.777Z,162.500000
2023-03-24T02:15:05.087Z,155.000000
2023-03-24T02:16:00.794Z,155.000000
2023-03-24T02:17:00.672Z,160.000000
2023-03-24T02:18:01.778Z,160.000000
2023-03-24T02:19:00.653Z,160.000000
2023-03-24T02:20:04.140Z,135.000000
2023-03-24T02:21:00.689Z,135.000000
2023-03-24T02:22:01.716Z,140.000000
2023-03-24T02:23:00.806Z,140.000000
2023-03-24T02:24:00.811Z,155.000000
2023-03-24T02:25:04.368Z,155.000000
2023-03-24T02:26:01.757Z,155.000000
2023-03-24T02:27:00.730Z,150.000000
2023-03-24T02:28:00.806Z,150.000000
2023-03-24T02:29:00.742Z,150.000000
2023-03-24T02:30:04.314Z,137.500000
2023-03-24T02:31:00.754Z,137.500000
2023-03-24T02:32:00.912Z,147.500000
2023-03-24T02:33:00.791Z,147.500000
2023-03-24T02:34:00.853Z,137.500000
2023-03-24T02:35:03.842Z,137.500000
2023-03-24T02:36:01.762Z,137.500000
2023-03-24T02:37:00.780Z,150.000000
2023-03-24T02:38:00.946Z,150.000000
2023-03-24T02:39:00.820Z,150.000000
2023-03-24T02:40:04.958Z,150.000000
2023-03-24T02:41:00.833Z,150.000000
2023-03-24T02:42:00.932Z,135.000000
2023-03-24T02:43:00.854Z,135.000000
2023-03-24T02:44:01.781Z,135.000000
2023-03-24T02:45:03.924Z,142.500000
2023-03-24T02:46:01.007Z,142.500000
2023-03-24T02:47:00.887Z,142.500000
2023-03-24T02:48:01.069Z,165.000000
2023-03-24T02:49:00.895Z,165.000000
2023-03-24T02:50:05.567Z,160.000000
2023-03-24T02:51:00.936Z,160.000000
2023-03-24T02:52:01.003Z,160.000000
2023-03-24T02:53:00.940Z,145.000000
2023-03-24T02:54:01.005Z,145.000000
2023-03-24T02:55:17.666Z,132.500000
2023-03-24T02:56:01.034Z,132.500000
2023-03-24T02:57:00.987Z,147.500000
2023-03-24T02:58:01.736Z,147.500000
2023-03-24T02:59:00.962Z,147.500000
2023-03-24T03:00:05.918Z,170.000000
2023-03-24T03:01:02.039Z,170.000000
2023-03-24T03:02:02.058Z,170.000000
2023-03-24T03:03:02.026Z,190.000000
2023-03-24T03:04:02.082Z,190.000000
2023-03-24T03:05:05.301Z,152.500000
2023-03-24T03:06:02.084Z,152.500000
2023-03-24T03:07:02.020Z,152.500000
2023-03-24T03:08:02.157Z,152.500000
2023-03-24T03:09:02.012Z,152.500000
2023-03-24T03:10:10.002Z,152.500000
2023-03-24T03:11:02.050Z,167.500000
2023-03-24T03:12:02.510Z,167.500000
2023-03-24T03:13:02.027Z,165.000000
2023-03-24T03:14:02.109Z,165.000000
2023-03-24T03:15:05.641Z,165.000000
2023-03-24T03:16:02.184Z,195.000000
2023-03-24T03:17:02.075Z,195.000000
2023-03-24T03:18:02.241Z,260.000000
2023-03-24T03:19:02.096Z,260.000000
2023-03-24T03:20:05.699Z,205.000000
2023-03-24T03:21:02.118Z,205.000000
2023-03-24T03:22:02.181Z,205.000000
2023-03-24T03:23:02.127Z,160.000000
2023-03-24T03:24:02.230Z,160.000000
2023-03-24T03:25:05.760Z,160.000000
2023-03-24T03:26:02.253Z,195.000000
2023-03-24T03:27:02.190Z,195.000000
2023-03-24T03:28:02.266Z,177.500000
2023-03-24T03:29:02.201Z,177.500000
2023-03-24T03:30:06.161Z,177.500000
2023-03-24T03:31:01.245Z,177.500000
2023-03-24T03:32:01.270Z,177.500000
2023-03-24T03:33:01.235Z,177.500000
2023-03-24T03:34:01.303Z,257.500000
2023-03-24T03:35:04.968Z,257.500000
2023-03-24T03:36:01.799Z,245.000000
2023-03-24T03:37:01.240Z,245.000000
2023-03-24T03:38:01.362Z,245.000000
2023-03-24T03:39:01.258Z,230.000000
2023-03-24T03:40:04.766Z,230.000000
2023-03-24T03:41:01.280Z,220.000000
2023-03-24T03:42:01.428Z,220.000000
2023-03-24T03:43:01.264Z,182.500000
2023-03-24T03:44:04.467Z,182.500000
2023-03-24T03:45:04.625Z,182.500000
2023-03-24T03:46:01.441Z,280.000000
2023-03-24T03:47:01.478Z,280.000000
2023-03-24T03:48:01.438Z,280.000000
2023-03-24T03:49:01.301Z,225.000000
2023-03-24T03:50:03.835Z,225.000000
2023-03-24T03:51:12.883Z,235.000000
2023-03-24T03:52:00.404Z,235.000000
2023-03-24T03:53:00.323Z,195.000000
2023-03-24T03:54:00.439Z,195.000000
2023-03-24T03:55:05.718Z,195.000000
2023-03-24T03:56:00.417Z,297.500000
2023-03-24T03:57:00.402Z,297.500000
2023-03-24T03:58:00.467Z,297.500000
2023-03-24T03:59:00.369Z,275.000000
2023-03-24T04:00:03.945Z,275.000000
2023-03-24T04:01:00.371Z,260.000000
2023-03-24T04:02:00.494Z,260.000000
2023-03-24T04:03:00.467Z,260.000000
2023-03-24T04:04:01.770Z,245.000000
2023-03-24T04:05:09.143Z,275.000000
2023-03-24T04:06:00.501Z,275.000000
2023-03-24T04:07:00.409Z,275.000000
2023-03-24T04:08:00.493Z,277.500000
2023-03-24T04:09:00.425Z,277.500000
2023-03-24T04:10:06.821Z,277.500000
2023-03-24T04:11:00.440Z,280.000000
2023-03-24T04:12:00.515Z,280.000000
2023-03-24T04:13:00.436Z,230.000000
2023-03-24T04:14:00.892Z,230.000000
2023-03-24T04:15:03.578Z,255.000000
2023-03-24T04:16:00.633Z,255.000000
2023-03-24T04:17:00.465Z,255.000000
2023-03-24T04:18:01.913Z,230.000000
2023-03-24T04:19:00.480Z,230.000000
2023-03-24T04:20:04.122Z,230.000000
2023-03-24T04:21:00.507Z,260.000000
2023-03-24T04:22:00.591Z,260.000000
2023-03-24T04:23:00.508Z,272.500000
2023-03-24T04:24:00.613Z,272.500000
2023-03-24T04:25:03.602Z,272.500000
2023-03-24T04:26:00.631Z,262.500000
2023-03-24T04:27:00.579Z,262.500000
2023-03-24T04:28:00.661Z,262.500000
2023-03-24T04:29:00.547Z,292.500000
2023-03-24T04:30:05.398Z,292.500000
2023-03-24T04:31:00.594Z,292.500000
2023-03-24T04:32:00.656Z,292.500000
2023-03-24T04:33:00.605Z,292.500000
2023-03-24T04:34:00.656Z,170.000000
2023-03-24T04:35:03.528Z,170.000000
2023-03-24T04:36:01.844Z,220.000000
2023-03-24T04:37:00.569Z,220.000000
2023-03-24T04:38:00.667Z,272.500000
2023-03-24T04:39:00.592Z,272.500000
2023-03-24T04:40:04.351Z,272.500000
2023-03-24T04:41:00.597Z,235.000000
2023-03-24T04:42:00.695Z,235.000000
2023-03-24T04:43:00.605Z,235.000000
2023-03-24T04:44:00.695Z,207.500000
2023-03-24T04:45:03.968Z,207.500000
2023-03-24T04:46:00.836Z,285.000000
2023-03-24T04:47:00.624Z,285.000000
2023-03-24T04:48:33.110Z,300.000000
2023-03-24T04:49:00.670Z,300.000000
2023-03-24T04:50:07.130Z,300.000000
2023-03-24T04:51:00.682Z,300.000000
2023-03-24T04:52:01.800Z,257.500000
2023-03-24T04:53:00.664Z,257.500000
2023-03-24T04:54:01.783Z,302.500000
2023-03-24T04:55:04.290Z,302.500000
2023-03-24T04:56:01.849Z,302.500000
2023-03-24T04:57:00.747Z,300.000000
2023-03-24T04:58:08.045Z,300.000000
2023-03-24T04:59:00.719Z,300.000000
2023-03-24T05:00:10.314Z,300.000000
2023-03-24T05:01:01.796Z,300.000000
2023-03-24T05:02:02.858Z,300.000000
2023-03-24T05:03:01.775Z,300.000000
2023-03-24T05:04:02.943Z,275.000000
2023-03-24T05:05:04.995Z,275.000000
2023-03-24T05:06:02.865Z,275.000000
2023-03-24T05:07:01.767Z,272.500000
2023-03-24T05:08:01.835Z,272.500000
2023-03-24T05:09:01.786Z,260.000000
2023-03-24T05:10:08.102Z,260.000000
2023-03-24T05:11:01.773Z,270.000000
2023-03-24T05:12:02.144Z,270.000000
2023-03-24T05:13:01.781Z,270.000000
2023-03-24T05:14:02.880Z,267.500000
2023-03-24T05:15:05.286Z,267.500000
2023-03-24T05:16:01.945Z,267.500000
2023-03-24T05:17:01.846Z,205.000000
2023-03-24T05:18:17.353Z,205.000000
2023-03-24T05:19:01.865Z,205.000000
2023-03-24T05:20:05.880Z,247.500000
2023-03-24T05:21:01.853Z,247.500000
2023-03-24T05:22:03.180Z,240.000000
2023-03-24T05:23:01.842Z,240.000000
2023-03-24T05:24:02.173Z,247.500000
2023-03-24T05:25:06.301Z,247.500000
2023-03-24T05:26:01.966Z,247.500000
2023-03-24T05:27:01.893Z,247.500000
2023-03-24T05:28:02.000Z,247.500000
2023-03-24T05:29:01.883Z,257.500000
2023-03-24T05:30:07.569Z,257.500000
2023-03-24T05:31:01.935Z,257.500000
2023-03-24T05:32:01.995Z,282.500000
2023-03-24T05:33:01.964Z,282.500000
2023-03-24T05:34:02.024Z,297.500000
2023-03-24T05:35:05.362Z,297.500000
2023-03-24T05:36:02.076Z,297.500000
2023-03-24T05:37:00.946Z,310.000000
2023-03-24T05:38:01.048Z,310.000000
2023-03-24T05:39:01.061Z,300.000000
2023-03-24T05:40:05.877Z,300.000000
2023-03-24T05:41:00.953Z,300.000000
2023-03-24T05:42:01.093Z,305.000000
2023-03-24T05:43:00.990Z,305.000000
2023-03-24T05:44:01.052Z,322.500000
2023-03-24T05:45:04.435Z,322.500000
2023-03-24T05:46:01.172Z,322.500000
2023-03-24T05:47:01.001Z,262.500000
2023-03-24T05:48:01.135Z,262.500000
2023-03-24T05:49:01.116Z,262.500000
2023-03-24T05:50:05.829Z,270.000000
2023-03-24T05:51:01.036Z,270.000000
2023-03-24T05:52:01.112Z,270.000000
2023-03-24T05:53:01.072Z,280.000000
2023-03-24T05:54:01.123Z,280.000000
2023-03-24T05:55:04.613Z,300.000000
2023-03-24T05:56:02.167Z,300.000000
2023-03-24T05:57:01.129Z,305.000000
2023-03-24T05:58:01.163Z,305.000000
2023-03-24T05:59:01.087Z,305.000000
2023-03-24T06:00:07.621Z,287.500000
2023-03-24T06:01:01.097Z,287.500000
2023-03-24T06:02:01.196Z,287.500000
2023-03-24T06:03:02.016Z,267.500000
2023-03-24T06:04:01.291Z,267.500000
2023-03-24T06:05:04.214Z,262.500000
2023-03-24T06:06:01.213Z,262.500000
2023-03-24T06:07:01.137Z,267.500000
2023-03-24T06:08:01.208Z,267.500000
2023-03-24T06:09:01.136Z,267.500000
2023-03-24T06:10:04.998Z,267.500000
2023-03-24T06:11:01.220Z,267.500000
2023-03-24T06:12:01.284Z,267.500000
2023-03-24T06:13:01.185Z,247.500000
2023-03-24T06:14:01.237Z,247.500000
2023-03-24T06:15:10.706Z,265.000000
2023-03-24T06:16:03.690Z,265.000000
2023-03-24T06:17:01.194Z,265.000000
2023-03-24T06:18:01.366Z,257.500000
2023-03-24T06:19:01.199Z,257.500000
2023-03-24T06:20:05.611Z,272.500000
2023-03-24T06:21:00.282Z,272.500000
2023-03-24T06:22:00.291Z,272.500000
2023-03-24T06:23:00.373Z,262.500000
2023-03-24T06:24:00.351Z,262.500000
2023-03-24T06:25:03.663Z,275.000000
2023-03-24T06:26:00.326Z,275.000000
2023-03-24T06:27:00.287Z,275.000000
2023-03-24T06:28:00.775Z,262.500000
2023-03-24T06:29:00.484Z,262.500000
2023-03-24T06:30:03.980Z,262.500000
2023-03-24T06:31:00.284Z,262.500000
2023-03-24T06:32:00.369Z,262.500000
2023-03-24T06:33:00.550Z,265.000000
2023-03-24T06:34:00.387Z,265.000000
2023-03-24T06:35:03.700Z,265.000000
2023-03-24T06:36:00.863Z,285.000000
2023-03-24T06:37:00.310Z,285.000000
2023-03-24T06:38:00.453Z,285.000000
2023-03-24T06:39:00.385Z,285.000000
2023-03-24T06:40:04.164Z,285.000000
2023-03-24T06:41:00.354Z,300.000000
2023-03-24T06:42:00.568Z,300.000000
2023-03-24T06:43:00.378Z,310.000000
2023-03-24T06:44:00.733Z,310.000000
2023-03-24T06:45:04.177Z,270.000000
2023-03-24T06:46:00.495Z,270.000000
2023-03-24T06:47:00.385Z,270.000000
2023-03-24T06:48:00.542Z,265.000000
2023-03-24T06:49:00.468Z,265.000000
2023-03-24T06:50:05.647Z,275.000000
2023-03-24T06:51:00.432Z,275.000000
2023-03-24T06:52:00.572Z,275.000000
2023-03-24T06:53:00.518Z,260.000000
2023-03-24T06:54:00.827Z,260.000000
2023-03-24T06:55:03.574Z,260.000000
2023-03-24T06:56:00.867Z,282.500000
2023-03-24T06:57:00.569Z,282.500000
2023-03-24T06:58:00.540Z,300.000000
2023-03-24T06:59:00.625Z,300.000000
2023-03-24T07:00:04.213Z,300.000000
2023-03-24T07:01:00.572Z,290.000000
2023-03-24T07:02:00.749Z,290.000000
2023-03-24T07:03:00.555Z,275.000000
2023-03-24T07:04:00.780Z,275.000000
2023-03-24T07:05:03.641Z,275.000000
2023-03-24T07:06:00.663Z,275.000000
2023-03-24T07:07:27.818Z,275.000000
2023-03-24T07:09:00.720Z,260.000000
2023-03-24T07:10:04.281Z,287.500000
2023-03-24T07:11:00.648Z,287.500000
2023-03-24T07:12:00.770Z,287.500000
2023-03-24T07:13:00.752Z,302.500000
2023-03-24T07:14:00.689Z,302.500000
2023-03-24T07:15:05.026Z,290.000000
2023-03-24T07:16:00.867Z,290.000000
2023-03-24T07:17:00.609Z,290.000000
2023-03-24T07:18:00.795Z,297.500000
2023-03-24T07:19:00.654Z,297.500000
2023-03-24T07:20:04.460Z,297.500000
2023-03-24T07:21:00.742Z,295.000000
2023-03-24T07:22:00.735Z,295.000000
2023-03-24T07:23:00.822Z,290.000000
2023-03-24T07:24:01.043Z,290.000000
2023-03-24T07:25:04.314Z,292.500000
2023-03-24T07:26:00.772Z,292.500000
2023-03-24T07:27:00.705Z,292.500000
2023-03-24T07:30:15.260Z,285.000000
2023-03-24T07:31:01.167Z,285.000000
2023-03-24T07:32:00.875Z,285.000000
2023-03-24T07:33:00.752Z,285.000000
2023-03-24T07:34:02.146Z,305.000000
2023-03-24T07:35:03.786Z,305.000000
2023-03-24T07:36:00.873Z,292.500000
2023-03-24T07:37:02.148Z,292.500000
2023-03-24T07:38:00.853Z,280.000000
2023-03-24T07:39:00.956Z,280.000000
2023-03-24T07:40:05.200Z,280.000000
2023-03-24T07:41:00.761Z,307.500000
2023-03-24T07:42:00.898Z,307.500000
2023-03-24T07:43:00.770Z,307.500000
2023-03-24T07:44:00.873Z,287.500000
2023-03-24T07:45:03.945Z,287.500000
2023-03-24T07:46:00.900Z,290.000000
2023-03-24T07:47:00.784Z,290.000000
2023-03-24T07:48:01.170Z,285.000000
2023-03-24T07:49:11.794Z,285.000000
2023-03-24T07:50:04.500Z,285.000000
2023-03-24T07:51:00.814Z,295.000000
2023-03-24T07:52:00.921Z,295.000000
2023-03-24T07:53:00.809Z,295.000000
2023-03-24T07:54:00.918Z,292.500000
2023-03-24T07:55:03.959Z,292.500000
2023-03-24T07:56:00.959Z,292.500000
2023-03-24T07:57:00.911Z,292.500000
2023-03-24T07:58:00.926Z,292.500000
2023-03-24T07:59:00.907Z,320.000000
2023-03-24T08:00:06.267Z,320.000000
2023-03-24T08:01:00.900Z,320.000000
2023-03-24T08:02:01.035Z,320.000000
2023-03-24T08:03:01.229Z,320.000000
2023-03-24T08:04:01.074Z,285.000000
2023-03-24T08:05:03.919Z,285.000000
2023-03-24T08:06:01.198Z,257.500000
2023-03-24T08:07:00.909Z,257.500000
2023-03-24T08:08:01.002Z,257.500000
2023-03-24T08:09:00.950Z,257.500000
2023-03-24T08:10:05.418Z,257.500000
2023-03-24T08:11:00.931Z,267.500000
2023-03-24T08:12:09.859Z,267.500000
2023-03-24T08:13:00.930Z,267.500000
2023-03-24T08:14:01.212Z,295.000000
2023-03-24T08:15:04.349Z,295.000000
2023-03-24T08:16:01.050Z,295.000000
2023-03-24T08:17:01.009Z,317.500000
2023-03-24T08:18:02.508Z,317.500000
2023-03-24T08:19:00.974Z,300.000000
2023-03-24T08:20:06.103Z,300.000000
2023-03-24T08:21:00.994Z,300.000000
2023-03-24T08:22:01.140Z,290.000000
2023-03-24T08:23:01.000Z,290.000000
2023-03-24T08:24:01.128Z,290.000000
2023-03-24T08:25:04.009Z,285.000000
2023-03-24T08:26:01.375Z,285.000000
2023-03-24T08:27:01.035Z,282.500000
2023-03-24T08:28:01.144Z,282.500000
2023-03-24T08:29:01.079Z,275.000000
2023-03-24T08:30:04.658Z,275.000000
2023-03-24T08:31:01.218Z,277.500000
2023-03-24T08:32:01.175Z,277.500000
2023-03-24T08:33:01.133Z,277.500000
2023-03-24T08:34:01.174Z,305.000000
2023-03-24T08:35:04.205Z,305.000000
2023-03-24T08:36:04.293Z,305.000000
2023-03-24T08:37:01.078Z,280.000000
2023-03-24T08:38:01.642Z,280.000000
2023-03-24T08:39:01.108Z,305.000000
2023-03-24T08:40:04.765Z,305.000000
2023-03-24T08:41:01.215Z,287.500000
2023-03-24T08:42:01.194Z,287.500000
2023-03-24T08:43:01.130Z,287.500000
2023-03-24T08:44:01.432Z,260.000000
2023-03-24T08:45:05.145Z,260.000000
2023-03-24T08:46:00.260Z,260.000000
2023-03-24T08:47:00.162Z,295.000000
2023-03-24T08:48:00.512Z,295.000000
2023-03-24T08:49:00.157Z,295.000000
2023-03-24T08:50:03.507Z,300.000000
2023-03-24T08:51:00.366Z,300.000000
2023-03-24T08:52:00.380Z,297.500000
2023-03-24T08:53:00.189Z,297.500000
2023-03-24T08:54:00.302Z,300.000000
2023-03-24T08:55:03.519Z,300.000000
2023-03-24T08:56:00.376Z,300.000000
2023-03-24T08:57:00.297Z,267.500000
2023-03-24T08:58:00.744Z,267.500000
2023-03-24T08:59:00.215Z,265.000000
2023-03-24T09:00:09.417Z,265.000000
2023-03-24T09:01:00.246Z,265.000000
2023-03-24T09:02:16.935Z,295.000000
2023-03-24T09:03:00.428Z,295.000000
2023-03-24T09:04:00.557Z,290.000000
2023-03-24T09:05:04.993Z,290.000000
2023-03-24T09:06:00.761Z,290.000000
2023-03-24T09:07:02.847Z,255.000000
2023-03-24T09:08:01.335Z,255.000000
2023-03-24T09:09:00.512Z,267.500000
2023-03-24T09:10:06.275Z,267.500000
2023-03-24T09:11:00.330Z,267.500000
2023-03-24T09:12:01.019Z,270.000000
2023-03-24T09:13:00.335Z,270.000000
2023-03-24T09:14:01.278Z,265.000000
2023-03-24T09:15:05.293Z,265.000000
2023-03-24T09:16:00.804Z,265.000000
2023-03-24T09:17:00.380Z,255.000000
2023-03-24T09:18:00.502Z,255.000000
2023-03-24T09:19:00.358Z,255.000000
2023-03-24T09:20:05.196Z,275.000000
2023-03-24T09:21:00.390Z,275.000000
2023-03-24T09:22:00.456Z,267.500000
2023-03-24T09:23:00.403Z,267.500000
2023-03-24T09:24:00.724Z,267.500000
2023-03-24T09:25:04.982Z,250.000000
2023-03-24T09:26:00.671Z,250.000000
2023-03-24T09:27:00.423Z,272.500000
2023-03-24T09:28:00.482Z,272.500000
2023-03-24T09:29:00.415Z,272.500000
2023-03-24T09:30:05.263Z,265.000000
2023-03-24T09:31:00.772Z,265.000000
2023-03-24T09:32:00.700Z,247.500000
2023-03-24T09:33:00.992Z,247.500000
2023-03-24T09:34:03.842Z,247.500000
2023-03-24T09:35:00.303Z,227.500000
2023-03-24T09:36:00.750Z,227.500000
2023-03-24T09:37:00.327Z,290.000000
2023-03-24T09:38:00.420Z,290.000000
2023-03-24T09:39:00.691Z,290.000000
2023-03-24T09:40:04.482Z,300.000000
2023-03-24T09:41:00.723Z,300.000000
2023-03-24T09:42:00.788Z,300.000000
2023-03-24T09:43:00.718Z,260.000000
2023-03-24T09:44:00.814Z,260.000000
2023-03-24T09:45:04.027Z,282.500000
2023-03-24T09:46:00.796Z,282.500000
2023-03-24T09:47:00.810Z,282.500000
2023-03-24T09:48:01.039Z,247.500000
2023-03-24T09:49:00.791Z,247.500000
2023-03-24T09:50:05.418Z,230.000000
2023-03-24T09:51:00.774Z,230.000000
2023-03-24T09:52:00.843Z,230.000000
2023-03-24T09:53:00.847Z,252.500000
2023-03-24T09:54:00.879Z,252.500000
2023-03-24T09:55:03.872Z,265.000000
2023-03-24T09:56:01.061Z,265.000000
2023-03-24T09:57:00.840Z,265.000000
2023-03-24T09:58:00.901Z,275.000000
2023-03-24T09:59:00.805Z,275.000000
2023-03-24T10:00:20.307Z,282.500000
2023-03-24T10:01:00.860Z,282.500000
2023-03-24T10:02:00.983Z,282.500000
2023-03-24T10:03:00.940Z,250.000000
2023-03-24T10:04:01.058Z,250.000000
2023-03-24T10:05:04.325Z,240.000000
2023-03-24T10:06:01.116Z,240.000000
2023-03-24T10:07:00.880Z,240.000000
2023-03-24T10:08:01.010Z,215.000000
2023-03-24T10:09:00.904Z,215.000000
2023-03-24T10:10:05.692Z,220.000000
2023-03-24T10:11:00.951Z,220.000000
2023-03-24T10:12:01.016Z,255.000000
2023-03-24T10:13:00.922Z,255.000000
2023-03-24T10:14:03.146Z,255.000000
2023-03-24T10:15:05.815Z,250.000000
2023-03-24T10:16:01.053Z,250.000000
2023-03-24T10:17:00.964Z,250.000000
2023-03-24T10:18:01.097Z,242.500000
2023-03-24T10:19:00.989Z,242.500000
2023-03-24T10:20:04.963Z,262.500000
2023-03-24T10:21:00.999Z,262.500000
2023-03-24T10:22:01.076Z,272.500000
2023-03-24T10:23:00.982Z,272.500000
2023-03-24T10:24:01.078Z,272.500000
2023-03-24T10:25:04.755Z,232.500000
2023-03-24T10:26:01.121Z,232.500000
2023-03-24T10:27:01.057Z,232.500000
2023-03-24T10:28:01.120Z,275.000000
2023-03-24T10:29:01.035Z,275.000000
2023-03-24T10:30:06.370Z,275.000000
2023-03-24T10:31:01.069Z,275.000000
2023-03-24T10:32:01.220Z,275.000000
2023-03-24T10:33:01.094Z,210.000000
2023-03-24T10:34:01.156Z,210.000000
2023-03-24T10:35:04.078Z,210.000000
2023-03-24T10:36:01.208Z,235.000000
2023-03-24T10:37:01.111Z,235.000000
2023-03-24T10:38:01.210Z,275.000000
2023-03-24T10:39:16.371Z,275.000000
2023-03-24T10:40:05.867Z,275.000000
2023-03-24T10:41:01.118Z,235.000000
2023-03-24T10:42:01.214Z,235.000000
2023-03-24T10:43:06.987Z,255.000000
2023-03-24T10:44:00.258Z,255.000000
2023-03-24T10:45:03.433Z,290.000000
2023-03-24T10:46:00.300Z,290.000000
2023-03-24T10:47:00.181Z,290.000000
2023-03-24T10:48:00.414Z,290.000000
2023-03-24T10:49:00.192Z,290.000000
2023-03-24T10:50:14.253Z,290.000000
2023-03-24T10:51:00.239Z,292.500000
2023-03-24T10:52:00.315Z,292.500000
2023-03-24T10:53:00.236Z,255.000000
2023-03-24T10:54:01.790Z,255.000000
2023-03-24T10:55:06.106Z,255.000000
2023-03-24T10:56:00.346Z,252.500000
2023-03-24T10:57:00.378Z,252.500000
2023-03-24T10:58:00.478Z,252.500000
2023-03-24T10:59:00.299Z,242.500000
2023-03-24T11:00:04.032Z,242.500000
2023-03-24T11:01:00.485Z,220.000000
2023-03-24T11:02:00.476Z,220.000000
2023-03-24T11:03:00.422Z,220.000000
2023-03-24T11:04:00.818Z,252.500000
2023-03-24T11:05:03.767Z,252.500000
2023-03-24T11:06:00.450Z,235.000000
2023-03-24T11:07:02.577Z,235.000000
2023-03-24T11:08:00.427Z,265.000000